Time;durP1;ratioP1;P1;durP2;ratioP2;P2;SDS_P1;SDS_P2;PMS_P1;PMS_P2;Temp;Humidity;BMP_temperature;BMP_pressure;BME280_temperature;BME280_humidity;BME280_pressure;Samples;Min_cycle;Max_cycle;Signal;HPM_P1;HPM_P2
2022/08/01 00:01:25;;;;;;;4.05;2.17;;;;;;;20.91;70.04;99677.59;5011137;28;20050;-69
2022/08/01 00:03:52;;;;;;;3.92;2.15;;;;;;;20.75;70.68;99676.34;5011163;28;20100;-70
2022/08/01 00:06:19;;;;;;;3.65;1.90;;;;;;;20.58;72.03;99682.44;5010912;28;20053;-70
2022/08/01 00:08:45;;;;;;;3.33;2.05;;;;;;;20.51;73.09;99681.28;5029549;28;20085;-70
2022/08/01 00:11:12;;;;;;;2.90;1.95;;;;;;;20.45;73.84;99679.16;5028928;28;20056;-70
2022/08/01 00:13:40;;;;;;;5.10;2.70;;;;;;;20.38;74.85;99678.91;5029876;28;20544;-69
2022/08/01 00:16:07;;;;;;;3.95;2.22;;;;;;;20.32;75.38;99684.78;5030191;28;20698;-69
2022/08/01 00:18:34;;;;;;;6.85;2.78;;;;;;;20.27;76.03;99674.50;5030701;28;20054;-70
2022/08/01 00:21:00;;;;;;;2.95;2.17;;;;;;;20.22;76.52;99684.78;5030573;28;20140;-69
2022/08/01 00:23:27;;;;;;;5.43;2.28;;;;;;;20.16;76.66;99674.66;5030428;28;20624;-69
2022/08/01 00:25:54;;;;;;;2.85;2.00;;;;;;;20.15;77.19;99683.66;5029662;28;20041;-69
2022/08/01 00:28:20;;;;;;;4.07;2.10;;;;;;;20.12;77.51;99687.47;5030794;28;20045;-69
2022/08/01 00:30:48;;;;;;;3.13;2.33;;;;;;;20.05;78.05;99686.31;5026998;28;20042;-69
2022/08/01 00:33:15;;;;;;;4.78;2.50;;;;;;;20.00;79.35;99685.88;5010708;28;20050;-69
2022/08/01 00:35:41;;;;;;;5.50;2.83;;;;;;;19.86;81.05;99678.25;5010081;28;20486;-70
2022/08/01 00:38:08;;;;;;;6.00;2.38;;;;;;;19.69;82.09;99680.63;5010603;28;20525;-70
2022/08/01 00:40:34;;;;;;;5.72;3.63;;;;;;;19.61;82.77;99680.41;5010670;28;20532;-70
2022/08/01 00:43:01;;;;;;;3.88;2.70;;;;;;;19.59;82.80;99678.84;5010712;28;20476;-71
2022/08/01 00:45:27;;;;;;;3.63;2.10;;;;;;;19.58;83.04;99669.16;5009890;28;20045;-69
2022/08/01 00:47:55;;;;;;;7.07;2.60;;;;;;;19.60;83.44;99677.88;5010636;28;20053;-69
2022/08/01 00:50:22;;;;;;;4.03;2.70;;;;;;;19.58;83.17;99670.00;5010423;28;20135;-69
2022/08/01 00:52:49;;;;;;;4.65;2.70;;;;;;;19.57;83.99;99673.66;5010637;28;20056;-69
2022/08/01 00:55:16;;;;;;;2.78;2.30;;;;;;;19.52;84.21;99668.72;5009964;28;20050;-69
2022/08/01 00:57:43;;;;;;;4.13;2.78;;;;;;;19.50;84.12;99661.81;5010551;28;20053;-68
2022/08/01 01:00:11;;;;;;;4.72;2.88;;;;;;;19.49;84.20;99669.00;5010213;28;20052;-70
2022/08/01 01:02:38;;;;;;;6.70;2.40;;;;;;;19.50;84.29;99669.84;5010549;28;20053;-69
2022/08/01 01:05:07;;;;;;;2.58;2.05;;;;;;;19.50;84.35;99669.84;5009768;28;20494;-69
2022/08/01 01:07:42;;;;;;;5.55;2.78;;;;;;;19.50;83.96;99675.19;5019117;28;20049;-70
2022/08/01 01:10:16;;;;;;;4.85;2.83;;;;;;;19.51;84.22;99675.03;5030328;28;20045;-69
2022/08/01 01:12:48;;;;;;;4.43;2.38;;;;;;;19.50;84.00;99673.34;5030347;28;20049;-70
2022/08/01 01:15:18;;;;;;;4.22;2.20;;;;;;;19.48;83.66;99677.13;5029241;28;20513;-70
2022/08/01 01:17:49;;;;;;;4.90;2.45;;;;;;;19.52;83.60;99673.22;5029466;28;20053;-69
2022/08/01 01:20:19;;;;;;;5.45;2.53;;;;;;;19.57;84.30;99675.50;5029553;28;20052;-69
2022/08/01 01:22:58;;;;;;;3.05;2.35;;;;;;;19.59;84.02;99677.06;5029460;28;20053;-69
2022/08/01 01:25:41;;;;;;;3.28;2.17;;;;;;;19.62;84.20;99674.09;5028588;28;20049;-70
2022/08/01 01:28:15;;;;;;;4.03;2.25;;;;;;;19.63;84.09;99674.94;5017324;28;20058;-69
2022/08/01 01:30:46;;;;;;;4.45;1.92;;;;;;;19.63;83.47;99673.09;5010063;28;20064;-68
2022/08/01 01:33:15;;;;;;;2.58;1.98;;;;;;;19.63;83.32;99683.81;5009977;28;20046;-68
2022/08/01 01:35:47;;;;;;;5.90;2.58;;;;;;;19.63;82.82;99675.78;5011612;28;20054;-68
2022/08/01 01:38:19;;;;;;;4.00;2.58;;;;;;;19.61;82.91;99680.41;5009385;28;20058;-69
2022/08/01 01:40:47;;;;;;;3.88;2.30;;;;;;;19.60;82.99;99673.38;5009743;28;20046;-69
2022/08/01 01:43:15;;;;;;;4.30;2.75;;;;;;;19.62;83.46;99678.59;5009758;28;20133;-70
2022/08/01 01:45:45;;;;;;;3.38;2.30;;;;;;;19.60;82.48;99680.56;5009007;28;20052;-70
2022/08/01 01:48:14;;;;;;;5.55;2.75;;;;;;;19.59;82.99;99678.84;5009653;28;20057;-69
2022/08/01 01:50:42;;;;;;;2.80;2.15;;;;;;;19.61;83.06;99680.41;5009403;28;20046;-69
2022/08/01 01:53:11;;;;;;;3.35;2.33;;;;;;;19.66;82.94;99678.16;5009706;28;20048;-68
2022/08/01 01:55:40;;;;;;;6.05;2.50;;;;;;;19.67;82.36;99671.00;5008829;28;20556;-69
2022/08/01 01:58:08;;;;;;;3.83;2.70;;;;;;;19.66;82.22;99671.97;5011756;28;20108;-69
2022/08/01 02:00:36;;;;;;;3.75;2.15;;;;;;;19.68;82.58;99670.06;5013431;28;20141;-68
2022/08/01 02:03:07;;;;;;;5.85;2.63;;;;;;;19.69;82.41;99664.59;5013442;28;20517;-70
2022/08/01 02:05:36;;;;;;;5.75;2.50;;;;;;;19.70;82.15;99665.41;5013006;28;20050;-70
2022/08/01 02:08:05;;;;;;;4.55;2.47;;;;;;;19.71;82.28;99659.06;5026009;28;20060;-70
2022/08/01 02:10:32;;;;;;;4.57;2.40;;;;;;;19.71;82.04;99669.78;5032995;28;20525;-71
2022/08/01 02:13:01;;;;;;;4.93;2.72;;;;;;;19.69;82.01;99661.91;5033269;28;20052;-68
2022/08/01 02:15:28;;;;;;;4.15;2.20;;;;;;;19.68;81.96;99660.19;5032550;28;20050;-70
2022/08/01 02:17:57;;;;;;;6.85;2.92;;;;;;;19.68;82.23;99665.53;5032846;28;20520;-69
2022/08/01 02:20:29;;;;;;;8.43;2.40;;;;;;;19.70;82.25;99668.09;5028618;28;20041;-67
2022/08/01 02:23:02;;;;;;;3.33;2.42;;;;;;;19.72;81.99;99666.13;5031721;28;20045;-69
2022/08/01 02:25:33;;;;;;;3.65;3.10;;;;;;;19.72;81.80;99664.28;5012434;28;20053;-69
2022/08/01 02:28:05;;;;;;;4.00;2.40;;;;;;;19.74;81.83;99661.50;5013002;28;20042;-70
2022/08/01 02:30:34;;;;;;;4.63;3.00;;;;;;;19.77;81.91;99655.88;5012955;28;20057;-70
2022/08/01 02:33:05;;;;;;;4.93;2.90;;;;;;;19.79;81.91;99656.56;5013047;28;20596;-68
2022/08/01 02:35:38;;;;;;;3.78;2.53;;;;;;;19.80;81.37;99658.25;5012602;28;20048;-69
2022/08/01 02:38:07;;;;;;;6.05;2.70;;;;;;;19.81;81.68;99656.41;5013107;28;20639;-69
2022/08/01 02:40:37;;;;;;;5.53;2.50;;;;;;;19.81;81.50;99654.59;5012649;28;20050;-69
2022/08/01 02:43:06;;;;;;;7.25;2.30;;;;;;;19.80;81.39;99658.25;5012890;28;20046;-69
2022/08/01 02:45:35;;;;;;;3.72;2.45;;;;;;;19.81;81.34;99656.41;5012435;28;20060;-69
2022/08/01 02:48:08;;;;;;;4.03;2.47;;;;;;;19.82;81.10;99658.97;5012903;28;20050;-70
2022/08/01 02:50:37;;;;;;;3.97;2.78;;;;;;;19.78;80.94;99656.69;5012688;28;20057;-70
2022/08/01 02:53:06;;;;;;;4.13;2.40;;;;;;;19.74;80.98;99661.50;5012679;28;20060;-70
2022/08/01 02:55:34;;;;;;;3.92;2.50;;;;;;;19.75;81.18;99649.81;5011979;28;20054;-69
2022/08/01 02:58:02;;;;;;;5.70;2.58;;;;;;;19.77;81.14;99647.00;5012639;28;20053;-70
2022/08/01 03:00:31;;;;;;;5.13;2.28;;;;;;;19.76;80.98;99645.28;5014806;28;20056;-70
2022/08/01 03:03:00;;;;;;;5.75;2.53;;;;;;;19.76;81.20;99646.13;5013425;28;20054;-69
2022/08/01 03:05:28;;;;;;;4.25;2.72;;;;;;;19.75;80.87;99646.28;5012167;28;20053;-70
2022/08/01 03:07:57;;;;;;;5.95;2.83;;;;;;;19.74;81.08;99648.13;5024161;28;20065;-69
2022/08/01 03:10:25;;;;;;;2.78;2.20;;;;;;;19.73;80.92;99649.09;5031466;28;20049;-70
2022/08/01 03:12:52;;;;;;;7.00;2.58;;;;;;;19.71;81.13;99649.25;5032974;28;20053;-69
2022/08/01 03:15:20;;;;;;;3.03;2.30;;;;;;;19.68;80.99;99656.69;5031560;28;20048;-69
2022/08/01 03:17:48;;;;;;;4.95;2.83;;;;;;;19.67;81.20;99647.81;5032991;28;20056;-69
2022/08/01 03:20:17;;;;;;;5.82;2.88;;;;;;;19.67;81.15;99646.94;5022938;28;20042;-70
2022/08/01 03:22:45;;;;;;;6.70;3.53;;;;;;;19.67;80.92;99641.59;5014467;28;20054;-69
2022/08/01 03:25:16;;;;;;;4.70;3.15;;;;;;;19.65;80.75;99655.09;5012469;28;20056;-71
2022/08/01 03:27:44;;;;;;;8.77;2.80;;;;;;;19.62;81.04;99652.69;5012144;28;20053;-70
2022/08/01 03:30:12;;;;;;;3.67;2.75;;;;;;;19.62;80.99;99658.06;5012061;28;20046;-70
2022/08/01 03:32:39;;;;;;;5.00;2.75;;;;;;;19.63;80.97;99654.38;5011724;28;20045;-69
2022/08/01 03:35:07;;;;;;;4.10;3.10;;;;;;;19.64;80.79;99657.91;5011288;28;20053;-70
2022/08/01 03:37:37;;;;;;;6.47;2.85;;;;;;;19.65;80.78;99664.94;5012185;28;20125;-70
2022/08/01 03:40:10;;;;;;;6.25;2.83;;;;;;;19.64;81.06;99658.75;5011682;28;20050;-71
2022/08/01 03:42:42;;;;;;;5.95;3.38;;;;;;;19.64;80.68;99658.75;5011900;28;20049;-69
2022/08/01 03:45:12;;;;;;;4.75;2.92;;;;;;;19.65;80.66;99657.78;5013298;28;20053;-70
2022/08/01 03:47:43;;;;;;;3.92;2.50;;;;;;;19.64;80.49;99657.91;5011631;28;20138;-70
2022/08/01 03:50:12;;;;;;;5.72;3.47;;;;;;;19.65;80.60;99659.59;5011680;28;20084;-69
2022/08/01 03:52:42;;;;;;;6.15;2.83;;;;;;;19.62;80.45;99662.56;5011649;28;20060;-71
2022/08/01 03:55:12;;;;;;;4.95;2.78;;;;;;;19.63;80.64;99657.06;5010848;28;20046;-69
2022/08/01 03:57:41;;;;;;;4.60;3.15;;;;;;;19.63;80.58;99658.88;5011294;28;20048;-69
2022/08/01 04:00:08;;;;;;;5.40;3.13;;;;;;;19.64;80.91;99658.75;5011048;28;20060;-69
2022/08/01 04:02:36;;;;;;;4.97;3.38;;;;;;;19.62;80.52;99662.56;5011126;28;20054;-68
2022/08/01 04:05:03;;;;;;;5.35;3.90;;;;;;;19.60;80.83;99667.19;5010702;28;20050;-69
2022/08/01 04:07:32;;;;;;;5.22;2.75;;;;;;;19.60;80.76;99664.53;5019325;28;20046;-69
2022/08/01 04:09:59;;;;;;;4.03;2.28;;;;;;;19.63;80.81;99659.72;5030859;28;20083;-69
2022/08/01 04:12:25;;;;;;;6.50;4.28;;;;;;;19.64;80.51;99656.09;5029136;28;20052;-68
2022/08/01 04:14:53;;;;;;;7.80;3.72;;;;;;;19.66;80.42;99661.28;5030335;28;20128;-69
2022/08/01 04:17:20;;;;;;;6.78;3.72;;;;;;;19.65;80.26;99663.13;5031092;28;20052;-69
2022/08/01 04:19:47;;;;;;;6.78;3.45;;;;;;;19.65;80.00;99664.94;5030463;28;20507;-69
2022/08/01 04:22:15;;;;;;;6.22;3.40;;;;;;;19.67;80.13;99663.88;5030955;28;20046;-69
2022/08/01 04:24:48;;;;;;;5.70;3.72;;;;;;;19.67;80.25;99666.53;5030050;28;20056;-68
2022/08/01 04:27:20;;;;;;;4.55;3.33;;;;;;;19.68;80.16;99667.38;5030824;28;20134;-70
2022/08/01 04:29:50;;;;;;;5.97;3.47;;;;;;;19.69;80.09;99675.28;5030946;28;20053;-69
2022/08/01 04:32:22;;;;;;;8.38;3.75;;;;;;;19.70;80.10;99682.31;5030653;28;20045;-69
2022/08/01 04:34:50;;;;;;;8.52;3.65;;;;;;;19.75;80.12;99686.41;5030169;28;20128;-70
2022/08/01 04:37:18;;;;;;;5.40;3.13;;;;;;;19.78;80.01;99686.13;5031632;28;20053;-70
2022/08/01 04:39:46;;;;;;;4.93;3.40;;;;;;;19.78;80.02;99689.66;5031409;28;20685;-69
2022/08/01 04:42:15;;;;;;;7.72;4.03;;;;;;;19.79;80.21;99688.69;5031228;28;20136;-69
2022/08/01 04:44:42;;;;;;;7.10;4.07;;;;;;;19.78;80.53;99694.16;5030382;28;20037;-70
2022/08/01 04:47:10;;;;;;;7.32;4.13;;;;;;;19.75;80.14;99697.13;5030638;28;20489;-69
2022/08/01 04:49:39;;;;;;;7.28;3.95;;;;;;;19.71;80.07;99689.38;5030358;28;20054;-71
2022/08/01 04:52:06;;;;;;;7.78;3.60;;;;;;;19.70;80.33;99684.16;5031072;28;20425;-69
2022/08/01 04:54:36;;;;;;;9.85;4.38;;;;;;;19.68;80.50;99688.78;5029974;28;20053;-69
2022/08/01 04:57:04;;;;;;;6.15;3.90;;;;;;;19.67;80.72;99684.38;5030151;28;20081;-69
2022/08/01 04:59:40;;;;;;;5.63;3.97;;;;;;;19.70;80.21;99693.00;5029599;28;20579;-68
2022/08/01 05:02:07;;;;;;;7.22;4.30;;;;;;;19.72;80.10;99690.22;5030834;28;20057;-69
2022/08/01 05:04:33;;;;;;;7.07;5.13;;;;;;;19.74;80.00;99690.91;5030621;28;20806;-69
2022/08/01 05:07:02;;;;;;;5.60;4.32;;;;;;;19.80;79.80;99694.88;5028401;28;20041;-68
2022/08/01 05:09:28;;;;;;;9.02;5.05;;;;;;;19.80;79.63;99703.75;5030123;28;20049;-70
2022/08/01 05:11:58;;;;;;;11.85;5.40;;;;;;;19.80;79.54;99697.53;5027355;28;20509;-70
2022/08/01 05:14:25;;;;;;;7.88;5.10;;;;;;;19.82;79.67;99691.06;5010067;28;20054;-70
2022/08/01 05:16:51;;;;;;;9.82;5.00;;;;;;;19.88;79.56;99698.53;5010275;28;20046;-69
2022/08/01 05:19:18;;;;;;;9.50;5.00;;;;;;;19.90;79.82;99690.38;5010142;28;20054;-71
2022/08/01 05:21:45;;;;;;;10.05;5.47;;;;;;;19.93;79.76;99696.28;5023924;28;20128;-68
2022/08/01 05:24:13;;;;;;;11.40;5.50;;;;;;;20.01;79.60;99689.41;5029107;28;20057;-67
2022/08/01 05:26:40;;;;;;;10.98;4.90;;;;;;;20.06;78.92;99685.34;5029551;28;20050;-71
2022/08/01 05:29:06;;;;;;;9.63;4.25;;;;;;;20.10;78.58;99696.63;5029945;28;20501;-70
2022/08/01 05:31:34;;;;;;;7.05;5.05;;;;;;;20.12;78.39;99698.16;5029212;28;20132;-69
2022/08/01 05:34:01;;;;;;;7.78;4.93;;;;;;;20.13;78.67;99710.59;5029160;28;20647;-70
2022/08/01 05:36:28;;;;;;;5.68;4.55;;;;;;;20.18;78.23;99707.47;5014421;28;20059;-70
2022/08/01 05:38:54;;;;;;;9.65;6.13;;;;;;;20.21;77.87;99709.88;5009841;28;20054;-70
2022/08/01 05:41:22;;;;;;;9.88;5.63;;;;;;;20.24;77.53;99704.25;5009401;28;20145;-69
2022/08/01 05:43:49;;;;;;;7.57;5.63;;;;;;;20.29;77.53;99710.03;5009508;28;20050;-68
2022/08/01 05:46:15;;;;;;;15.40;8.00;;;;;;;20.36;77.34;99707.63;5008931;28;20053;-69
2022/08/01 05:48:42;;;;;;;9.02;6.13;;;;;;;20.42;76.94;99709.75;5009308;28;20414;-69
2022/08/01 05:51:08;;;;;;;13.20;5.82;;;;;;;20.43;76.93;99713.25;5009703;28;20132;-69
2022/08/01 05:53:35;;;;;;;10.48;5.78;;;;;;;20.37;76.98;99710.16;5009841;28;20144;-69
2022/08/01 05:56:02;;;;;;;8.75;6.05;;;;;;;20.40;77.28;99706.34;5008823;28;20050;-68
2022/08/01 05:58:30;;;;;;;10.73;6.95;;;;;;;20.36;76.86;99713.00;5009398;28;20046;-69
2022/08/01 06:00:56;;;;;;;12.52;7.20;;;;;;;20.31;77.18;99708.06;5010443;28;20107;-68
2022/08/01 06:03:23;;;;;;;8.77;6.32;;;;;;;20.30;77.33;99710.84;5013949;28;20056;-69
2022/08/01 06:05:50;;;;;;;8.77;7.45;;;;;;;20.25;77.39;99705.91;5028429;28;20048;-69
2022/08/01 06:08:16;;;;;;;19.05;7.57;;;;;;;20.23;77.75;99702.56;5014054;28;20054;-69
2022/08/01 06:10:43;;;;;;;10.52;6.50;;;;;;;20.27;77.68;99703.13;5009442;28;20054;-69
2022/08/01 06:13:09;;;;;;;11.68;7.70;;;;;;;20.27;77.76;99698.59;5009171;28;20056;-69
2022/08/01 06:15:37;;;;;;;16.52;9.70;;;;;;;20.34;77.79;99702.41;5009094;28;20062;-69
2022/08/01 06:18:04;;;;;;;15.07;8.95;;;;;;;20.33;77.17;99707.91;5009360;28;20045;-69
2022/08/01 06:20:31;;;;;;;16.60;9.57;;;;;;;20.32;77.25;99706.22;5009169;28;20371;-69
2022/08/01 06:22:58;;;;;;;15.90;9.15;;;;;;;20.30;77.21;99709.03;5011822;28;20045;-70
2022/08/01 06:25:24;;;;;;;15.35;9.18;;;;;;;20.31;77.09;99704.53;5008796;28;20136;-69
2022/08/01 06:27:51;;;;;;;14.80;9.35;;;;;;;20.31;77.24;99713.41;5008871;28;20050;-70
2022/08/01 06:30:19;;;;;;;13.13;6.55;;;;;;;20.33;77.36;99714.13;5009344;28;20058;-70
2022/08/01 06:32:48;;;;;;;14.38;8.82;;;;;;;20.37;77.43;99706.63;5010524;28;20054;-69
2022/08/01 06:35:14;;;;;;;16.73;8.20;;;;;;;20.38;77.44;99711.88;5010521;28;20045;-69
2022/08/01 06:37:41;;;;;;;12.98;7.32;;;;;;;20.37;77.56;99703.97;5011554;28;20046;-70
2022/08/01 06:40:10;;;;;;;12.15;7.47;;;;;;;20.41;77.25;99710.75;5009399;28;20056;-69
2022/08/01 06:42:37;;;;;;;10.90;7.63;;;;;;;20.44;77.37;99710.44;5008902;28;20060;-70
2022/08/01 06:45:04;;;;;;;11.48;8.73;;;;;;;20.47;77.06;99717.34;5011961;28;20049;-70
2022/08/01 06:47:31;;;;;;;9.15;7.00;;;;;;;20.55;76.85;99704.13;5012827;28;20076;-70
2022/08/01 06:49:59;;;;;;;15.27;8.05;;;;;;;20.61;76.22;99711.63;5012736;28;20149;-70
2022/08/01 06:52:25;;;;;;;11.23;7.20;;;;;;;20.63;75.85;99716.84;5012851;28;20072;-70
2022/08/01 06:54:52;;;;;;;11.60;8.02;;;;;;;20.63;76.15;99717.69;5012035;28;20049;-69
2022/08/01 06:57:19;;;;;;;14.68;7.18;;;;;;;20.66;76.16;99721.91;5012174;28;20042;-70
2022/08/01 06:59:46;;;;;;;14.32;7.43;;;;;;;20.69;76.20;99718.94;5017148;28;20144;-70
2022/08/01 07:02:13;;;;;;;13.05;7.22;;;;;;;20.67;76.26;99719.06;5032156;28;20051;-70
2022/08/01 07:04:39;;;;;;;18.23;6.80;;;;;;;20.77;75.83;99719.06;5027144;28;20060;-64
2022/08/01 07:07:07;;;;;;;13.40;9.30;;;;;;;20.84;75.98;99717.50;5017359;28;20052;-64
2022/08/01 07:09:34;;;;;;;12.15;7.30;;;;;;;21.09;75.02;99715.19;5032366;28;20053;-65
2022/08/01 07:12:00;;;;;;;15.88;8.45;;;;;;;21.25;73.86;99715.44;5031911;28;20077;-63
2022/08/01 07:14:27;;;;;;;9.20;6.63;;;;;;;21.35;73.26;99718.09;5031572;28;20045;-63
2022/08/01 07:16:53;;;;;;;9.50;6.55;;;;;;;21.37;72.99;99714.28;5031996;28;20049;-64
2022/08/01 07:19:20;;;;;;;10.15;7.45;;;;;;;21.39;72.53;99717.69;5031755;28;20148;-65
2022/08/01 07:21:46;;;;;;;8.18;7.10;;;;;;;21.44;72.45;99718.09;5031782;28;20049;-65
2022/08/01 07:24:15;;;;;;;10.23;6.70;;;;;;;21.46;72.09;99712.56;5031302;28;20064;-63
2022/08/01 07:26:43;;;;;;;13.43;6.68;;;;;;;21.53;71.91;99713.66;5031726;28;20041;-64
2022/08/01 07:29:10;;;;;;;9.93;6.45;;;;;;;21.66;71.28;99721.41;5031688;28;20041;-64
2022/08/01 07:31:36;;;;;;;9.82;6.38;;;;;;;21.71;70.69;99720.94;5031660;28;20057;-64
2022/08/01 07:34:03;;;;;;;12.02;7.47;;;;;;;21.58;71.30;99722.13;5031217;28;20049;-64
2022/08/01 07:36:30;;;;;;;10.35;6.40;;;;;;;21.53;71.97;99724.41;5031377;28;20045;-64
2022/08/01 07:38:56;;;;;;;16.10;7.50;;;;;;;21.59;71.74;99729.19;5031424;28;20460;-64
2022/08/01 07:41:24;;;;;;;11.27;7.90;;;;;;;21.65;71.43;99725.06;5030775;28;20045;-63
2022/08/01 07:43:51;;;;;;;10.27;7.60;;;;;;;21.75;71.27;99730.38;5011098;28;20056;-62
2022/08/01 07:46:17;;;;;;;10.43;6.85;;;;;;;21.77;71.15;99731.94;5011316;28;20506;-62
2022/08/01 07:48:44;;;;;;;10.48;7.15;;;;;;;21.76;70.88;99740.16;5011685;28;20056;-63
2022/08/01 07:51:11;;;;;;;10.55;7.15;;;;;;;21.77;70.80;99733.78;5011394;28;20056;-63
2022/08/01 07:53:38;;;;;;;11.45;8.65;;;;;;;21.73;70.73;99733.22;5011595;28;20092;-63
2022/08/01 07:56:05;;;;;;;10.02;7.82;;;;;;;21.63;71.42;99738.66;5015818;28;20046;-62
2022/08/01 07:58:34;;;;;;;15.45;9.77;;;;;;;21.68;70.92;99740.84;5030913;28;20041;-63
2022/08/01 08:01:00;;;;;;;18.17;8.85;;;;;;;21.76;70.99;99737.47;5025774;28;20132;-62
2022/08/01 08:03:27;;;;;;;13.32;7.57;;;;;;;21.90;70.48;99739.63;5011304;28;20056;-65
2022/08/01 08:05:54;;;;;;;12.13;8.63;;;;;;;22.01;69.94;99739.44;5010663;28;20050;-66
2022/08/01 08:08:20;;;;;;;11.90;8.48;;;;;;;22.03;69.59;99745.50;5026202;28;20408;-64
2022/08/01 08:10:47;;;;;;;15.27;8.25;;;;;;;21.97;70.02;99745.25;5031142;28;20053;-48
2022/08/01 08:13:13;;;;;;;11.13;7.45;;;;;;;22.00;69.96;99753.00;5030937;28;20041;-47
2022/08/01 08:15:41;;;;;;;10.63;7.85;;;;;;;22.03;69.58;99748.19;5030348;28;20053;-49
2022/08/01 08:18:08;;;;;;;9.23;7.85;;;;;;;22.06;69.53;99757.78;5030718;28;20041;-50
2022/08/01 08:20:34;;;;;;;17.35;8.55;;;;;;;22.13;69.30;99752.66;5030589;28;20512;-48
2022/08/01 08:24:19;;;;;;;10.57;7.88;;;;;;;22.13;68.72;99758.03;5031157;28;20060;-48
2022/08/01 08:25:48;;;;;;;11.52;8.95;;;;;;;22.09;69.31;99752.94;5030007;28;20053;-48
2022/08/01 08:28:14;;;;;;;14.20;9.38;;;;;;;22.13;68.92;99758.03;5027224;28;20398;-53
2022/08/01 08:30:42;;;;;;;10.93;8.40;;;;;;;22.17;68.97;99759.41;5030619;28;20052;-48
2022/08/01 08:33:09;;;;;;;12.02;7.45;;;;;;;22.17;68.43;99757.56;5030871;28;20057;-45
2022/08/01 08:35:35;;;;;;;14.75;8.88;;;;;;;22.24;69.98;99758.69;5029885;28;20045;-49
2022/08/01 08:38:02;;;;;;;14.73;10.40;;;;;;;22.35;69.32;99751.41;5030648;28;20050;-47
2022/08/01 08:40:31;;;;;;;8.50;7.55;;;;;;;22.40;69.06;99755.34;5030495;28;20052;-45
2022/08/01 08:43:00;;;;;;;12.68;7.78;;;;;;;22.40;68.88;99762.56;5030232;28;20132;-43
2022/08/01 08:45:27;;;;;;;10.68;7.40;;;;;;;22.52;68.12;99753.28;5029570;28;20063;-66
2022/08/01 08:47:55;;;;;;;11.45;7.20;;;;;;;22.50;68.27;99760.63;5030300;28;20050;-48
2022/08/01 08:50:23;;;;;;;13.65;7.55;;;;;;;22.75;67.77;99764.38;5030264;28;20052;-45
2022/08/01 08:52:51;;;;;;;9.40;6.68;;;;;;;22.97;66.87;99763.06;5030013;28;20512;-52
2022/08/01 08:55:19;;;;;;;7.22;5.82;;;;;;;23.15;65.82;99769.28;5029469;28;20076;-48
2022/08/01 08:57:46;;;;;;;10.77;6.15;;;;;;;23.10;65.28;99771.59;5020639;28;20049;-50
2022/08/01 09:00:14;;;;;;;8.80;5.93;;;;;;;23.22;65.28;99761.44;5009718;28;20410;-51
2022/08/01 09:02:43;;;;;;;8.07;6.47;;;;;;;23.47;63.64;99759.72;5010591;28;20046;-50
2022/08/01 09:05:12;;;;;;;9.68;6.55;;;;;;;23.72;63.30;99763.38;5009797;28;20092;-47
2022/08/01 09:07:39;;;;;;;8.57;5.97;;;;;;;23.81;62.98;99755.41;5020005;28;20072;-46
2022/08/01 09:10:07;;;;;;;10.07;6.00;;;;;;;23.81;62.90;99761.63;5030171;28;20049;-47
2022/08/01 09:12:33;;;;;;;11.55;6.35;;;;;;;23.86;62.35;99758.47;5030713;28;20045;-47
2022/08/01 09:15:00;;;;;;;7.93;5.90;;;;;;;23.83;62.21;99766.88;5028989;28;20088;-47
2022/08/01 09:17:26;;;;;;;7.15;5.72;;;;;;;23.51;63.20;99761.13;5030097;28;20067;-48
2022/08/01 09:19:55;;;;;;;10.15;5.50;;;;;;;23.63;63.19;99764.38;5029679;28;20049;-45
2022/08/01 09:22:25;;;;;;;9.88;7.15;;;;;;;23.46;63.97;99767.97;5029633;28;20045;-50
2022/08/01 09:24:59;;;;;;;8.27;5.53;;;;;;;23.40;65.00;99776.69;5028891;28;20061;-47
2022/08/01 09:27:26;;;;;;;17.90;8.48;;;;;;;23.23;67.32;99770.34;5029575;28;20656;-44
2022/08/01 09:29:54;;;;;;;15.25;6.45;;;;;;;23.17;68.50;99776.34;5028415;28;20052;-54
2022/08/01 09:32:20;;;;;;;11.35;8.43;;;;;;;23.03;70.96;99773.22;5029115;28;20512;-48
2022/08/01 09:34:47;;;;;;;12.63;9.80;;;;;;;22.69;70.81;99775.75;5026910;28;20049;-46
2022/08/01 09:37:17;;;;;;;10.18;7.60;;;;;;;22.61;72.51;99789.13;5029356;28;20075;-47
2022/08/01 09:39:45;;;;;;;10.60;8.15;;;;;;;22.43;73.71;99781.88;5029198;28;20107;-45
2022/08/01 09:42:23;;;;;;;17.27;9.88;;;;;;;22.25;73.60;99784.56;5029275;28;20136;-46
2022/08/01 09:44:50;;;;;;;13.70;8.82;;;;;;;22.15;74.76;99790.94;5028822;28;20060;-45
2022/08/01 09:47:20;;;;;;;17.05;9.70;;;;;;;22.08;75.08;99785.34;5029286;28;20045;-48
2022/08/01 09:49:54;;;;;;;17.98;12.20;;;;;;;22.51;73.17;99790.03;5023886;28;20042;-48
2022/08/01 09:52:23;;;;;;;13.23;9.70;;;;;;;23.36;71.22;99782.38;5034910;28;20059;-71
2022/08/01 09:54:57;;;;;;;13.38;10.02;;;;;;;23.66;67.81;99787.44;5012947;28;20053;-70
2022/08/01 09:57:24;;;;;;;14.32;9.48;;;;;;;23.49;68.32;99786.50;5016979;28;20076;-69
2022/08/01 09:59:53;;;;;;;12.27;9.52;;;;;;;23.72;65.32;99790.31;5028188;28;20529;-73
2022/08/01 10:02:34;;;;;;;15.27;9.85;;;;;;;24.80;64.26;99792.41;5029178;28;20049;-69
2022/08/01 10:05:01;;;;;;;11.48;9.07;;;;;;;24.73;63.71;99792.22;5028522;28;20489;-72
2022/08/01 10:07:28;;;;;;;12.82;8.05;;;;;;;24.52;61.74;99791.88;5024237;28;20134;-70
2022/08/01 10:09:56;;;;;;;8.57;6.60;;;;;;;25.53;60.15;99779.91;5027803;28;20157;-71
2022/08/01 10:12:24;;;;;;;11.50;6.63;;;;;;;26.23;57.23;99779.16;5005615;28;20149;-70
2022/08/01 10:14:55;;;;;;;8.15;7.05;;;;;;;26.86;55.56;99777.28;5005724;28;20057;-70
2022/08/01 10:17:24;;;;;;;9.50;6.35;;;;;;;27.56;54.05;99782.38;5004987;28;20498;-71
2022/08/01 10:19:54;;;;;;;9.70;7.22;;;;;;;26.90;55.54;99784.84;5031942;28;20517;-71
2022/08/01 10:22:24;;;;;;;6.85;5.22;;;;;;;26.50;55.31;99784.06;5032664;28;20056;-70
2022/08/01 10:24:58;;;;;;;7.68;5.93;;;;;;;26.18;54.94;99776.16;5031919;28;20156;-72
2022/08/01 10:27:26;;;;;;;5.90;4.80;;;;;;;26.32;54.38;99768.13;5032617;28;20115;-72
2022/08/01 10:29:57;;;;;;;8.70;5.75;;;;;;;26.94;53.06;99774.47;5031317;28;20048;-70
2022/08/01 10:32:24;;;;;;;9.68;5.80;;;;;;;26.06;55.30;99773.00;5032864;28;20049;-72
2022/08/01 10:34:53;;;;;;;7.65;5.88;;;;;;;25.53;57.53;99775.34;5025885;28;20046;-70
2022/08/01 10:37:19;;;;;;;7.53;5.50;;;;;;;25.76;56.47;99780.84;5013285;28;20140;-67
2022/08/01 10:39:46;;;;;;;7.97;5.93;;;;;;;26.85;53.86;99778.28;5013534;28;20046;-68
2022/08/01 10:42:14;;;;;;;8.82;7.38;;;;;;;27.50;52.40;99791.25;5013102;28;20064;-67
2022/08/01 10:44:42;;;;;;;9.40;6.47;;;;;;;28.07;50.53;99784.34;5016971;28;20112;-66
2022/08/01 10:47:10;;;;;;;9.75;7.50;;;;;;;28.21;49.59;99783.50;5032527;28;20084;-68
2022/08/01 10:49:42;;;;;;;11.43;6.13;;;;;;;28.36;48.99;99780.75;5028284;28;20745;-71
2022/08/01 10:52:15;;;;;;;6.70;5.72;;;;;;;27.85;48.37;99788.03;5011854;28;20755;-68
2022/08/01 10:54:41;;;;;;;5.30;4.35;;;;;;;27.56;48.86;99787.78;5011690;28;20507;-70
2022/08/01 10:57:08;;;;;;;4.88;3.88;;;;;;;27.91;47.64;99788.13;5012703;28;20049;-69
2022/08/01 10:59:39;;;;;;;7.35;5.65;;;;;;;27.89;47.08;99789.34;5012102;28;20049;-69
2022/08/01 11:02:06;;;;;;;8.13;6.60;;;;;;;27.40;48.11;99782.56;5012396;28;20103;-69
2022/08/01 11:04:43;;;;;;;8.15;6.63;;;;;;;27.15;49.32;99774.66;5011739;28;20050;-68
2022/08/01 11:07:16;;;;;;;7.97;5.72;;;;;;;27.24;49.12;99771.88;5019498;28;20131;-69
2022/08/01 11:09:45;;;;;;;7.65;6.28;;;;;;;26.90;49.76;99767.75;5013234;28;20054;-69
2022/08/01 11:12:13;;;;;;;10.30;7.20;;;;;;;26.48;51.26;99769.91;5013895;28;20391;-67
2022/08/01 11:15:25;;;;;;;8.52;5.82;;;;;;;26.35;49.83;99764.22;5011726;28;20057;-68
2022/08/01 11:17:54;;;;;;;6.78;5.40;;;;;;;26.41;49.51;99763.53;5007677;28;20064;-67
2022/08/01 11:20:22;;;;;;;9.88;7.75;;;;;;;26.22;50.62;99753.16;5012692;28;20050;-68
2022/08/01 11:23:27;;;;;;;6.18;5.32;;;;;;;26.13;50.09;99763.16;5012901;28;20061;-68
2022/08/01 11:26:21;;;;;;;7.63;4.40;;;;;;;26.32;50.57;99753.78;5027257;28;20041;-70
2022/08/01 11:29:16;;;;;;;5.35;4.78;;;;;;;26.43;49.39;99760.63;5031931;28;20059;-69
2022/08/01 11:31:43;;;;;;;7.03;4.90;;;;;;;26.24;50.05;99756.53;5031223;28;20144;-68
2022/08/01 11:34:11;;;;;;;6.65;3.50;;;;;;;26.22;46.83;99758.56;5031448;28;20053;-67
2022/08/01 11:36:37;;;;;;;4.38;3.97;;;;;;;26.28;48.12;99757.84;5031907;28;20412;-67
2022/08/01 11:39:19;;;;;;;5.63;4.18;;;;;;;26.43;46.69;99761.47;5031849;28;20041;-67